Time;durP1;ratioP1;P1;durP2;ratioP2;P2;SDS_P1;SDS_P2;PMS_P1;PMS_P2;Temp;Humidity;BMP_temperature;BMP_pressure;BME280_temperature;BME280_humidity;BME280_pressure;Samples;Min_cycle;Max_cycle;Signal;HPM_P1;HPM_P2
2021/12/22 00:00:12;;;;;;;33.17;14.30;;;-3.40;99.90;;;;;;5005456;28;20482;-75
2021/12/22 00:02:46;;;;;;;36.13;15.03;;;-3.40;99.90;;;;;;5013809;28;20461;-75
2021/12/22 00:05:13;;;;;;;29.57;13.63;;;-3.40;99.90;;;;;;5013100;28;20462;-75
2021/12/22 00:07:40;;;;;;;30.50;14.40;;;-3.50;99.90;;;;;;5013535;28;20974;-75
2021/12/22 00:10:07;;;;;;;33.67;15.57;;;-3.50;99.90;;;;;;5014801;28;20501;-75
2021/12/22 00:12:34;;;;;;;25.87;15.37;;;-3.60;99.90;;;;;;5013866;28;21045;-75
2021/12/22 00:15:00;;;;;;;35.97;16.50;;;-3.60;99.90;;;;;;5013585;28;20524;-75
2021/12/22 00:17:27;;;;;;;29.93;16.30;;;-3.70;99.90;;;;;;5015039;28;20484;-75
2021/12/22 00:19:55;;;;;;;35.67;14.87;;;-3.70;99.90;;;;;;5013998;28;20891;-75
2021/12/22 00:22:21;;;;;;;29.63;15.23;;;-3.70;99.90;;;;;;5014371;28;20995;-75
2021/12/22 00:24:49;;;;;;;37.60;15.70;;;-3.70;99.90;;;;;;5014645;28;20450;-76
2021/12/22 00:27:15;;;;;;;25.00;13.97;;;-3.70;99.90;;;;;;5014484;28;20520;-75
2021/12/22 00:29:45;;;;;;;29.70;15.60;;;-3.70;99.90;;;;;;5012917;28;20524;-75
2021/12/22 00:32:15;;;;;;;32.90;16.30;;;-3.80;99.90;;;;;;5014133;28;20493;-75
2021/12/22 00:34:47;;;;;;;30.53;15.30;;;-3.80;99.90;;;;;;5030643;28;20457;-75
2021/12/22 00:37:18;;;;;;;37.53;15.63;;;-3.80;99.90;;;;;;5031602;28;20537;-75
2021/12/22 00:39:46;;;;;;;42.73;16.20;;;-3.80;99.90;;;;;;5044687;22;20559;-73
2021/12/22 00:42:13;;;;;;;38.20;16.90;;;-3.80;99.90;;;;;;5033747;28;20441;-73
2021/12/22 00:44:41;;;;;;;43.10;16.20;;;-3.70;99.90;;;;;;5039070;28;20832;-72
2021/12/22 00:47:08;;;;;;;36.73;15.07;;;-3.80;99.90;;;;;;5053303;28;20456;-74
2021/12/22 00:49:35;;;;;;;34.07;15.30;;;-3.80;99.90;;;;;;5047786;28;20969;-72
2021/12/22 00:52:02;;;;;;;33.30;17.00;;;-3.80;99.90;;;;;;5033951;28;20489;-73
2021/12/22 00:54:30;;;;;;;36.67;16.13;;;-3.70;99.90;;;;;;5050193;28;20870;-72
2021/12/22 00:57:03;;;;;;;38.07;17.57;;;-3.80;99.90;;;;;;5049536;28;20869;-71
2021/12/22 00:59:30;;;;;;;35.70;17.23;;;-3.70;99.90;;;;;;5033898;28;20868;-71
2021/12/22 01:01:56;;;;;;;36.57;17.17;;;-3.70;99.90;;;;;;5033424;28;20450;-71
2021/12/22 01:04:23;;;;;;;41.13;18.53;;;-3.70;99.90;;;;;;5051044;28;20865;-72
2021/12/22 01:06:50;;;;;;;41.40;17.83;;;-3.70;99.90;;;;;;5053167;28;20456;-72
2021/12/22 01:09:16;;;;;;;32.63;17.37;;;-3.70;99.90;;;;;;5034346;28;20500;-71
2021/12/22 01:11:45;;;;;;;36.63;16.40;;;-3.80;99.90;;;;;;5035310;28;20477;-71
2021/12/22 01:14:11;;;;;;;35.30;16.60;;;-3.80;99.90;;;;;;5049529;28;20456;-71
2021/12/22 01:16:39;;;;;;;45.73;16.40;;;-3.80;99.90;;;;;;5050031;28;20539;-71
2021/12/22 01:19:13;;;;;;;40.90;16.53;;;-3.80;99.90;;;;;;5051298;28;20456;-72
2021/12/22 01:21:44;;;;;;;36.30;15.80;;;-3.80;99.90;;;;;;5050756;28;20805;-71
2021/12/22 01:24:16;;;;;;;37.20;16.50;;;-3.80;99.90;;;;;;5037513;28;20540;-71
2021/12/22 01:26:50;;;;;;;36.93;16.90;;;-3.80;99.90;;;;;;5037808;28;20463;-73
2021/12/22 01:29:18;;;;;;;38.17;15.70;;;-3.90;99.90;;;;;;5049352;28;20479;-72
2021/12/22 01:31:45;;;;;;;30.97;16.23;;;-3.80;99.90;;;;;;5048935;28;20488;-72
2021/12/22 01:34:13;;;;;;;44.17;17.70;;;-3.80;99.90;;;;;;5032776;28;20461;-71
2021/12/22 01:36:40;;;;;;;38.67;15.97;;;-3.90;99.90;;;;;;5032708;28;20937;-72
2021/12/22 01:39:07;;;;;;;45.63;16.13;;;-3.90;99.90;;;;;;5033832;28;20538;-73
2021/12/22 01:41:34;;;;;;;33.50;15.97;;;-3.90;99.90;;;;;;5035008;28;20518;-74
2021/12/22 01:44:01;;;;;;;35.23;15.40;;;-3.90;99.90;;;;;;5032592;28;20873;-72
2021/12/22 01:49:38;;;;;;;39.10;16.07;;;-3.90;99.90;;;;;;5033690;28;20468;-72
2021/12/22 01:52:07;;;;;;;32.93;15.20;;;-3.90;99.90;;;;;;5036060;28;20476;-72
2021/12/22 01:54:38;;;;;;;35.20;15.50;;;-4.00;99.90;;;;;;5045868;28;20860;-72
2021/12/22 01:57:09;;;;;;;37.77;15.60;;;-4.00;99.90;;;;;;5052210;28;20446;-72
2021/12/22 01:59:36;;;;;;;42.30;15.93;;;-4.00;99.90;;;;;;5037767;28;20481;-72
2021/12/22 02:02:05;;;;;;;38.50;16.27;;;-4.00;99.90;;;;;;5038804;28;20815;-72
2021/12/22 02:04:32;;;;;;;36.13;16.20;;;-4.00;99.90;;;;;;5051988;28;20948;-72
2021/12/22 02:06:58;;;;;;;33.70;15.87;;;-3.90;99.90;;;;;;5052495;28;20499;-72
2021/12/22 02:09:43;;;;;;;36.23;16.60;;;-4.00;99.90;;;;;;5052485;28;20468;-72
2021/12/22 02:12:12;;;;;;;42.63;15.30;;;-4.00;99.90;;;;;;5044710;28;20481;-72
2021/12/22 02:14:40;;;;;;;31.87;15.13;;;-4.00;99.90;;;;;;5037356;28;20452;-71
2021/12/22 02:17:09;;;;;;;34.37;15.57;;;-4.00;99.90;;;;;;5038715;28;20461;-72
2021/12/22 02:19:39;;;;;;;40.67;16.40;;;-4.00;99.90;;;;;;5037226;28;20539;-72
2021/12/22 02:22:09;;;;;;;34.87;15.73;;;-4.00;99.90;;;;;;5038634;28;20457;-71
2021/12/22 02:24:36;;;;;;;43.53;15.90;;;-4.10;99.90;;;;;;5037716;28;20457;-72
2021/12/22 02:27:07;;;;;;;38.10;15.90;;;-4.00;99.90;;;;;;5054330;28;20452;-72
2021/12/22 02:29:39;;;;;;;30.87;16.00;;;-4.10;99.90;;;;;;5055823;28;20475;-72
2021/12/22 02:32:13;;;;;;;35.97;16.57;;;-4.10;99.90;;;;;;5039738;28;21002;-72
2021/12/22 02:34:43;;;;;;;30.77;15.00;;;-4.20;99.90;;;;;;5038314;28;20534;-72
2021/12/22 02:37:14;;;;;;;34.67;15.17;;;-4.20;99.90;;;;;;5037181;28;20464;-72
2021/12/22 02:39:47;;;;;;;32.53;14.63;;;-4.20;99.90;;;;;;5035281;28;20493;-72
2021/12/22 02:42:14;;;;;;;31.37;15.80;;;-4.20;99.90;;;;;;5048331;28;20540;-72
2021/12/22 02:44:41;;;;;;;40.60;15.73;;;-4.20;99.90;;;;;;5037023;28;20461;-72
2021/12/22 02:47:18;;;;;;;45.17;17.47;;;-4.30;99.90;;;;;;5036569;28;20506;-72
2021/12/22 02:49:46;;;;;;;35.10;15.93;;;-4.30;99.90;;;;;;5036540;28;20473;-72
2021/12/22 02:52:13;;;;;;;49.30;16.47;;;-4.30;99.90;;;;;;5038434;28;20484;-72
2021/12/22 02:54:46;;;;;;;41.80;18.77;;;-4.40;99.90;;;;;;5035459;28;20488;-72
2021/12/22 02:57:24;;;;;;;37.07;15.83;;;-4.30;99.90;;;;;;5036794;28;20536;-71
2021/12/22 03:00:10;;;;;;;42.20;17.67;;;-4.40;99.90;;;;;;5054686;28;20984;-72
2021/12/22 03:02:44;;;;;;;40.30;16.47;;;-4.40;99.90;;;;;;5052417;28;20450;-71
2021/12/22 03:05:12;;;;;;;44.53;18.77;;;-4.40;99.90;;;;;;5035421;28;20453;-72
2021/12/22 03:07:39;;;;;;;43.73;17.90;;;-4.40;99.90;;;;;;5037007;28;20456;-71
2021/12/22 03:10:14;;;;;;;49.73;17.27;;;-4.40;99.90;;;;;;5034518;28;20527;-72
2021/12/22 03:12:41;;;;;;;43.30;18.13;;;-4.40;99.90;;;;;;5020411;28;20845;-71
2021/12/22 03:15:10;;;;;;;43.93;18.10;;;-4.40;99.90;;;;;;5036245;28;21015;-72
2021/12/22 03:17:38;;;;;;;41.97;16.80;;;-4.40;99.90;;;;;;5036031;28;21291;-72
2021/12/22 03:20:07;;;;;;;52.93;17.13;;;-4.40;99.90;;;;;;5037218;28;20474;-72
2021/12/22 03:22:35;;;;;;;37.37;16.70;;;-4.50;99.90;;;;;;5036425;28;20450;-72
2021/12/22 03:25:02;;;;;;;45.33;18.70;;;-4.50;99.90;;;;;;5049923;28;20456;-72
2021/12/22 03:27:28;;;;;;;45.23;16.50;;;-4.50;99.90;;;;;;5052399;28;20496;-72
2021/12/22 03:29:55;;;;;;;41.30;16.90;;;-4.50;99.90;;;;;;5051413;28;20825;-72
2021/12/22 03:32:22;;;;;;;46.53;17.43;;;-4.50;99.90;;;;;;5054733;28;20480;-72
2021/12/22 03:34:49;;;;;;;40.80;16.47;;;-4.60;99.90;;;;;;5053010;28;20456;-71
2021/12/22 03:37:15;;;;;;;41.40;16.10;;;-4.60;99.90;;;;;;5053199;28;20460;-72
2021/12/22 03:39:43;;;;;;;56.27;18.60;;;-4.60;99.90;;;;;;5051122;28;20485;-72
2021/12/22 03:42:11;;;;;;;50.97;16.50;;;-4.60;99.90;;;;;;5039152;28;20507;-71
2021/12/22 03:44:38;;;;;;;43.97;16.77;;;-4.60;99.90;;;;;;5035663;28;20948;-71
2021/12/22 03:47:06;;;;;;;49.63;18.97;;;-4.60;99.90;;;;;;5036817;28;20935;-71
2021/12/22 03:49:33;;;;;;;60.77;18.07;;;-4.70;99.90;;;;;;5035919;28;20465;-72
2021/12/22 03:52:00;;;;;;;45.20;15.90;;;-4.70;99.90;;;;;;5035521;28;20456;-72
2021/12/22 03:54:27;;;;;;;63.60;17.30;;;-4.70;99.90;;;;;;5035103;28;20539;-72
2021/12/22 03:56:55;;;;;;;43.70;16.70;;;-4.70;99.90;;;;;;5030187;28;20795;-73
2021/12/22 03:59:23;;;;;;;45.70;17.20;;;-4.70;99.90;;;;;;5048028;28;20519;-71
2021/12/22 04:01:50;;;;;;;57.93;18.20;;;-4.70;99.90;;;;;;5049478;28;20460;-72
2021/12/22 04:04:18;;;;;;;51.73;16.30;;;-4.80;99.90;;;;;;5054196;28;20937;-71
2021/12/22 04:06:47;;;;;;;73.50;18.67;;;-4.80;99.90;;;;;;5035451;28;20469;-72
2021/12/22 04:09:15;;;;;;;54.97;15.70;;;-4.70;99.90;;;;;;5033198;28;20992;-71
2021/12/22 04:11:43;;;;;;;54.37;16.43;;;-4.80;99.90;;;;;;5035270;28;20452;-71
2021/12/22 04:14:11;;;;;;;51.43;16.33;;;-4.80;99.90;;;;;;5040947;28;20481;-72
2021/12/22 04:16:38;;;;;;;50.93;17.00;;;-4.80;99.90;;;;;;5050212;28;20448;-72
2021/12/22 04:19:05;;;;;;;46.47;17.90;;;-4.80;99.90;;;;;;5050487;28;20445;-72
2021/12/22 04:21:32;;;;;;;60.83;16.57;;;-4.80;99.90;;;;;;5054189;28;20535;-71
2021/12/22 04:24:00;;;;;;;53.53;16.60;;;-4.80;99.90;;;;;;5044627;28;20507;-71
2021/12/22 04:26:30;;;;;;;36.43;15.53;;;-4.80;99.90;;;;;;5052080;28;20459;-72
2021/12/22 04:28:57;;;;;;;44.37;15.83;;;-4.90;99.90;;;;;;5049901;28;21011;-72
2021/12/22 04:31:25;;;;;;;53.73;15.23;;;-5.00;99.90;;;;;;5053228;28;20961;-71
2021/12/22 04:33:52;;;;;;;52.97;18.53;;;-5.00;99.90;;;;;;5050765;28;20538;-71
2021/12/22 04:36:19;;;;;;;44.43;16.80;;;-5.00;99.90;;;;;;5053830;28;20535;-71
2021/12/22 04:38:46;;;;;;;52.60;16.43;;;-4.90;99.90;;;;;;5052217;28;20866;-71
2021/12/22 04:41:12;;;;;;;44.47;15.60;;;-5.00;99.90;;;;;;5045664;28;21067;-71
2021/12/22 04:43:39;;;;;;;46.07;15.47;;;-5.00;99.90;;;;;;5035376;28;21309;-71
2021/12/22 04:46:06;;;;;;;35.87;15.47;;;-5.10;99.90;;;;;;5052587;28;20464;-71
2021/12/22 04:48:35;;;;;;;47.90;16.60;;;-5.10;99.90;;;;;;5050302;28;20459;-71
2021/12/22 04:51:11;;;;;;;37.83;14.90;;;-5.10;99.90;;;;;;5051423;28;20562;-71
2021/12/22 04:53:48;;;;;;;51.07;17.67;;;-5.10;99.90;;;;;;5051244;28;20493;-71
2021/12/22 04:56:14;;;;;;;39.43;15.97;;;-5.30;99.90;;;;;;5049961;28;20452;-71
2021/12/22 04:58:41;;;;;;;41.83;16.23;;;-5.10;99.90;;;;;;5035251;28;20457;-72
2021/12/22 05:01:07;;;;;;;45.30;17.70;;;-5.20;99.90;;;;;;5034347;28;20545;-72
2021/12/22 05:03:35;;;;;;;50.43;18.23;;;-5.20;99.90;;;;;;5034373;28;20453;-71
2021/12/22 05:06:03;;;;;;;42.87;18.10;;;-5.20;99.90;;;;;;5032718;28;20456;-72
2021/12/22 05:08:30;;;;;;;49.33;17.20;;;-5.20;99.90;;;;;;5033039;28;20952;-71
2021/12/22 05:10:56;;;;;;;54.17;16.50;;;-5.20;99.90;;;;;;5046630;28;20562;-72
2021/12/22 05:13:23;;;;;;;43.77;17.40;;;-5.10;99.90;;;;;;5049768;28;20492;-71
2021/12/22 05:15:51;;;;;;;52.83;18.23;;;-5.20;99.90;;;;;;5051193;28;20457;-71
2021/12/22 05:18:24;;;;;;;51.97;18.00;;;-5.30;99.90;;;;;;5053259;28;20488;-71
2021/12/22 05:20:53;;;;;;;46.97;16.10;;;-5.20;99.90;;;;;;5049330;28;20486;-71
2021/12/22 05:23:20;;;;;;;55.90;18.30;;;-5.20;99.90;;;;;;5047399;28;20445;-72
2021/12/22 05:25:46;;;;;;;52.43;17.83;;;-5.20;99.90;;;;;;5035216;28;20506;-71
2021/12/22 05:28:13;;;;;;;44.73;17.57;;;-5.20;99.90;;;;;;5035286;28;20621;-71
2021/12/22 05:30:40;;;;;;;51.20;18.17;;;-5.20;99.90;;;;;;5037750;28;21000;-71
2021/12/22 05:33:07;;;;;;;43.17;17.33;;;-5.10;99.90;;;;;;5036951;28;20489;-71
2021/12/22 05:35:33;;;;;;;47.10;17.27;;;-5.10;99.90;;;;;;5037551;28;20452;-71
2021/12/22 05:38:01;;;;;;;42.37;15.87;;;-5.20;99.90;;;;;;5036657;28;20457;-71
2021/12/22 05:40:28;;;;;;;43.83;14.80;;;-5.20;99.90;;;;;;5038954;28;20477;-71
2021/12/22 05:42:57;;;;;;;49.53;16.47;;;-5.30;99.90;;;;;;5052681;28;20495;-72
2021/12/22 05:45:24;;;;;;;44.90;16.17;;;-5.30;99.90;;;;;;5056516;28;20513;-71
2021/12/22 05:47:52;;;;;;;49.60;18.17;;;-5.30;99.90;;;;;;5056453;28;20456;-71
2021/12/22 05:50:20;;;;;;;41.57;16.27;;;-5.70;99.90;;;;;;5055169;28;20514;-71
2021/12/22 06:00:07;;;;;;;38.47;16.83;;;-3.20;99.90;;;;;;5079773;28;20571;-72
2021/12/22 06:06:10;;;;;;;38.27;15.10;;;-5.10;99.90;;;;;;5090278;28;20559;-71
2021/12/22 06:13:46;;;;;;;36.30;15.80;;;-7.30;99.90;;;;;;5090009;28;20562;-71
2021/12/22 06:16:12;;;;;;;35.33;16.10;;;-5.50;99.90;;;;;;5073775;28;20446;-71
2021/12/22 06:18:43;;;;;;;57.47;18.37;;;-5.90;99.90;;;;;;5071617;28;20485;-71
2021/12/22 06:21:32;;;;;;;46.47;19.57;;;-5.10;99.90;;;;;;5151625;27;20555;-72
2021/12/22 06:23:58;;;;;;;51.30;19.05;;;-5.70;99.90;;;;;;5152450;27;20448;-72
2021/12/22 06:26:25;;;;;;;47.42;18.52;;;-5.60;99.90;;;;;;5152697;27;20204;-72
2021/12/22 06:42:15;;;;;;;50.87;18.67;;;-5.40;99.90;;;;;;5099491;27;1173284;-76
2021/12/22 06:44:42;;;;;;;43.37;18.40;;;-5.60;99.90;;;;;;5127578;28;20256;-76
2021/12/22 06:48:07;;;;;;;45.17;18.60;;;-5.50;99.90;;;;;;5086061;28;20565;-76
2021/12/22 06:55:46;;;;;;;42.17;19.87;;;-5.50;99.90;;;;;;5088357;28;20930;-75
2021/12/22 07:08:15;;;;;;;35.07;16.03;;;-5.90;99.90;;;;;;5087700;28;20564;-76
2021/12/22 07:19:28;;;;;;;33.80;16.53;;;-5.20;99.90;;;;;;5111968;27;20557;-75
2021/12/22 07:34:15;;;;;;;39.13;15.73;;;-5.30;99.90;;;;;;5086330;28;20567;-75
2021/12/22 07:54:28;;;;;;;30.63;14.20;;;-4.90;99.90;;;;;;5107815;27;1267112;-73
2021/12/22 08:00:37;;;;;;;35.73;15.63;;;-5.20;99.90;;;;;;5080319;28;20583;-75
2021/12/22 08:03:04;;;;;;;29.33;13.47;;;-5.30;99.90;;;;;;5064753;28;20444;-76
2021/12/22 08:10:16;;;;;;;31.63;14.90;;;-5.20;99.90;;;;;;5086050;28;20574;-75
